Time;durP1;ratioP1;P1;durP2;ratioP2;P2;SDS_P1;SDS_P2;PMS_P1;PMS_P2;Temp;Humidity;BMP_temperature;BMP_pressure;BME280_temperature;BME280_humidity;BME280_pressure;Samples;Min_cycle;Max_cycle;Signal;HPM_P1;HPM_P2
2023/09/29 00:00:47;;;;;;;9.63;5.32;;;19.40;64.50;;;;;;5092221;28;20040;-69
2023/09/29 00:03:15;;;;;;;13.15;5.28;;;19.40;64.40;;;;;;5082704;28;20381;-67
2023/09/29 00:05:44;;;;;;;12.75;5.53;;;19.40;64.40;;;;;;5072009;28;20044;-69
2023/09/29 00:08:13;;;;;;;8.85;5.32;;;19.40;64.40;;;;;;5072536;28;20028;-69
2023/09/29 00:10:40;;;;;;;17.47;5.40;;;19.30;64.30;;;;;;5078873;28;20032;-69
2023/09/29 00:13:07;;;;;;;12.07;5.60;;;19.30;64.20;;;;;;5092490;28;20169;-69
2023/09/29 00:15:33;;;;;;;12.10;5.47;;;19.30;64.30;;;;;;5092634;28;20031;-69
2023/09/29 00:18:02;;;;;;;14.07;5.13;;;19.30;64.50;;;;;;5090869;28;20039;-69
2023/09/29 00:20:29;;;;;;;9.35;5.38;;;19.40;64.60;;;;;;5092206;28;20453;-69
2023/09/29 00:22:56;;;;;;;7.80;4.90;;;19.30;64.60;;;;;;5091890;28;20071;-69
2023/09/29 00:25:23;;;;;;;9.82;5.05;;;19.30;64.60;;;;;;5092639;28;20021;-69
2023/09/29 00:27:50;;;;;;;9.77;5.30;;;19.30;64.80;;;;;;5092040;28;20048;-69
2023/09/29 00:30:16;;;;;;;6.95;5.10;;;19.30;64.90;;;;;;5092658;28;20097;-68
2023/09/29 00:32:46;;;;;;;7.35;5.15;;;19.30;65.00;;;;;;5092059;28;20081;-67
2023/09/29 00:35:27;;;;;;;12.60;5.30;;;19.20;64.90;;;;;;5092853;28;20479;-67
2023/09/29 00:37:57;;;;;;;12.43;5.25;;;19.20;65.00;;;;;;5093280;28;20093;-69
2023/09/29 00:40:25;;;;;;;9.27;5.13;;;19.20;64.90;;;;;;5096184;28;20032;-68
2023/09/29 00:42:52;;;;;;;6.13;4.85;;;19.20;65.10;;;;;;5095886;28;20032;-69
2023/09/29 00:45:25;;;;;;;12.18;5.22;;;19.20;65.20;;;;;;5096438;28;20028;-68
2023/09/29 00:48:06;;;;;;;9.95;5.00;;;19.20;65.30;;;;;;5095674;28;20028;-69
2023/09/29 00:50:32;;;;;;;5.90;4.68;;;19.10;65.40;;;;;;5094961;28;20476;-69
2023/09/29 00:52:59;;;;;;;6.75;4.72;;;19.10;65.70;;;;;;5095329;28;20035;-68
2023/09/29 00:55:28;;;;;;;10.55;6.05;;;19.10;65.90;;;;;;5095016;28;20428;-68
2023/09/29 00:57:58;;;;;;;10.57;5.78;;;19.00;65.80;;;;;;5095093;28;20048;-68
2023/09/29 01:00:32;;;;;;;7.38;5.35;;;19.00;66.20;;;;;;5095724;28;20065;-69
2023/09/29 01:03:03;;;;;;;13.30;5.95;;;19.00;66.40;;;;;;5095376;28;20032;-69
2023/09/29 01:05:32;;;;;;;8.55;5.43;;;18.90;66.60;;;;;;5096166;28;20028;-69
2023/09/29 01:07:58;;;;;;;10.52;5.68;;;18.90;67.30;;;;;;5095198;28;20036;-69
2023/09/29 01:10:24;;;;;;;10.32;5.47;;;18.90;67.40;;;;;;5095299;28;20484;-68
2023/09/29 01:12:50;;;;;;;11.98;6.18;;;18.80;67.90;;;;;;5094867;28;20024;-69
2023/09/29 01:15:17;;;;;;;7.88;6.18;;;18.80;68.10;;;;;;5095497;28;20047;-69
2023/09/29 01:17:46;;;;;;;15.07;5.72;;;18.80;68.00;;;;;;5095117;28;20086;-70
2023/09/29 01:20:24;;;;;;;9.63;5.50;;;18.80;68.00;;;;;;5095345;28;20116;-69
2023/09/29 01:22:50;;;;;;;8.82;5.65;;;18.80;67.60;;;;;;5095197;28;20058;-69
2023/09/29 01:25:15;;;;;;;8.70;5.78;;;18.80;67.80;;;;;;5091890;28;20114;-68
2023/09/29 01:27:42;;;;;;;11.18;6.20;;;18.70;67.70;;;;;;5095315;28;20179;-69
2023/09/29 01:30:09;;;;;;;9.25;5.82;;;18.70;67.70;;;;;;5094925;28;20127;-69
2023/09/29 01:32:35;;;;;;;10.77;5.25;;;18.70;67.90;;;;;;5095120;28;20032;-69
2023/09/29 01:35:01;;;;;;;6.93;5.32;;;18.70;68.10;;;;;;5094740;28;20028;-68
2023/09/29 01:37:28;;;;;;;9.98;5.57;;;18.60;68.30;;;;;;5094951;28;20038;-69
2023/09/29 01:39:53;;;;;;;10.02;5.85;;;18.60;68.20;;;;;;5094613;28;20132;-69
2023/09/29 01:42:19;;;;;;;7.18;5.25;;;18.60;68.30;;;;;;5094961;28;20203;-69
2023/09/29 01:44:46;;;;;;;7.32;4.55;;;18.60;68.00;;;;;;5094574;28;20032;-69
2023/09/29 01:47:11;;;;;;;7.63;4.70;;;18.60;67.80;;;;;;5094596;28;20453;-68
2023/09/29 01:49:37;;;;;;;7.38;4.47;;;18.60;67.40;;;;;;5093421;28;20098;-68
2023/09/29 01:52:03;;;;;;;7.30;4.97;;;18.60;67.10;;;;;;5094666;28;20115;-68
2023/09/29 01:54:28;;;;;;;10.02;4.97;;;18.60;67.10;;;;;;5094427;28;20036;-68
2023/09/29 01:56:54;;;;;;;12.70;5.25;;;18.60;67.20;;;;;;5094182;28;20494;-68
2023/09/29 01:59:20;;;;;;;9.02;5.85;;;18.60;67.30;;;;;;5094697;28;20025;-68
2023/09/29 02:01:45;;;;;;;10.55;6.57;;;18.60;67.90;;;;;;5079545;28;20093;-69
2023/09/29 02:04:11;;;;;;;13.80;5.90;;;18.50;69.00;;;;;;5074312;28;20031;-70
2023/09/29 02:06:40;;;;;;;13.70;6.68;;;18.40;69.30;;;;;;5074201;28;20039;-67
2023/09/29 02:09:09;;;;;;;9.55;6.43;;;18.40;69.60;;;;;;5073761;28;20036;-67
2023/09/29 02:11:36;;;;;;;10.30;6.85;;;18.30;70.20;;;;;;5074216;28;20036;-69
2023/09/29 02:14:04;;;;;;;10.43;6.20;;;18.20;70.60;;;;;;5076319;28;20043;-68
2023/09/29 02:16:30;;;;;;;10.07;6.75;;;18.10;71.10;;;;;;5074061;28;20108;-69
2023/09/29 02:18:56;;;;;;;7.50;6.25;;;18.10;71.50;;;;;;5073670;28;20104;-69
2023/09/29 02:21:23;;;;;;;12.20;6.90;;;18.00;72.00;;;;;;5073644;28;20028;-68
2023/09/29 02:23:48;;;;;;;16.92;6.80;;;17.90;72.60;;;;;;5073472;28;20459;-69
2023/09/29 02:26:15;;;;;;;9.73;6.95;;;17.80;73.30;;;;;;5073931;28;20028;-68
2023/09/29 02:28:40;;;;;;;11.38;7.07;;;17.80;73.40;;;;;;5073793;28;20526;-69
2023/09/29 02:31:13;;;;;;;12.32;7.05;;;17.80;73.70;;;;;;5073393;28;20029;-69
2023/09/29 02:33:40;;;;;;;16.55;7.05;;;17.70;73.70;;;;;;5073725;28;20111;-68
2023/09/29 02:36:06;;;;;;;11.98;6.72;;;17.70;74.00;;;;;;5073200;28;20032;-68
2023/09/29 02:38:32;;;;;;;12.50;7.05;;;17.60;74.30;;;;;;5073443;28;20426;-68
2023/09/29 02:40:59;;;;;;;10.02;7.10;;;17.60;75.50;;;;;;5072821;28;20029;-69
2023/09/29 02:43:30;;;;;;;10.55;7.18;;;17.60;75.00;;;;;;5073469;28;20056;-69
2023/09/29 02:45:56;;;;;;;7.97;6.50;;;17.50;75.40;;;;;;5073241;28;20024;-69
2023/09/29 02:48:21;;;;;;;11.45;7.38;;;17.50;75.80;;;;;;5073451;28;20025;-67
2023/09/29 02:50:47;;;;;;;11.93;7.70;;;17.40;76.10;;;;;;5073341;28;20126;-68
2023/09/29 02:53:14;;;;;;;11.10;7.57;;;17.40;76.70;;;;;;5072640;28;20104;-69
2023/09/29 02:55:40;;;;;;;12.07;7.40;;;17.40;77.00;;;;;;5072954;28;20028;-68
2023/09/29 02:58:07;;;;;;;12.27;7.28;;;17.30;76.80;;;;;;5072496;28;20127;-69
2023/09/29 03:00:32;;;;;;;14.85;7.85;;;17.30;77.10;;;;;;5072720;28;20086;-68
2023/09/29 03:02:59;;;;;;;10.48;7.30;;;17.30;77.40;;;;;;5071228;28;20412;-69
2023/09/29 03:05:25;;;;;;;8.88;7.30;;;17.30;77.70;;;;;;5073087;28;20347;-68
2023/09/29 03:07:51;;;;;;;14.27;7.60;;;17.20;77.90;;;;;;5072775;28;20059;-69
2023/09/29 03:10:17;;;;;;;10.52;7.20;;;17.20;78.00;;;;;;5074055;28;20373;-68
2023/09/29 03:12:46;;;;;;;11.98;7.28;;;17.20;78.30;;;;;;5073621;28;20103;-68
2023/09/29 03:15:16;;;;;;;11.82;7.63;;;17.20;78.20;;;;;;5073416;28;20040;-68
2023/09/29 03:17:46;;;;;;;10.00;7.43;;;17.20;78.10;;;;;;5072336;28;20043;-68
2023/09/29 03:20:12;;;;;;;12.70;7.22;;;17.20;78.90;;;;;;5077100;28;20059;-68
2023/09/29 03:22:39;;;;;;;10.13;7.05;;;17.20;79.00;;;;;;5093749;28;20496;-68
2023/09/29 03:25:05;;;;;;;12.13;7.68;;;17.20;78.80;;;;;;5093590;28;20021;-68
2023/09/29 03:27:31;;;;;;;9.68;7.20;;;17.20;78.70;;;;;;5093277;28;20423;-68
2023/09/29 03:29:59;;;;;;;13.15;7.00;;;17.20;79.10;;;;;;5093014;28;20059;-69
2023/09/29 03:32:25;;;;;;;11.18;7.32;;;17.10;79.50;;;;;;5092646;28;20036;-69
2023/09/29 03:34:50;;;;;;;10.43;6.93;;;17.10;79.60;;;;;;5092990;28;20031;-68
2023/09/29 03:37:18;;;;;;;17.92;6.95;;;17.10;79.60;;;;;;5091355;28;20035;-69
2023/09/29 03:39:43;;;;;;;12.88;7.05;;;17.10;79.50;;;;;;5092964;28;20020;-69
2023/09/29 03:42:09;;;;;;;9.27;6.85;;;17.10;79.10;;;;;;5091106;28;20341;-69
2023/09/29 03:44:35;;;;;;;13.77;7.50;;;17.10;78.90;;;;;;5092842;28;20024;-69
2023/09/29 03:47:00;;;;;;;11.32;7.45;;;17.10;79.50;;;;;;5092253;28;20081;-69
2023/09/29 03:49:26;;;;;;;14.07;7.28;;;17.10;79.60;;;;;;5092842;28;20081;-68
2023/09/29 03:51:52;;;;;;;11.90;7.47;;;17.00;79.30;;;;;;5092833;28;20032;-69
2023/09/29 03:54:18;;;;;;;14.60;7.32;;;17.00;79.60;;;;;;5092409;28;20028;-69
2023/09/29 03:56:44;;;;;;;10.98;6.90;;;17.00;79.90;;;;;;5092735;28;20048;-68
2023/09/29 03:59:10;;;;;;;13.13;7.00;;;17.00;80.00;;;;;;5092382;28;20036;-69
2023/09/29 04:01:36;;;;;;;13.75;6.40;;;17.00;79.60;;;;;;5077754;28;20032;-68
2023/09/29 04:04:02;;;;;;;11.77;7.60;;;16.90;79.80;;;;;;5072171;28;20474;-69
2023/09/29 04:06:29;;;;;;;13.88;6.90;;;16.90;79.50;;;;;;5072459;28;20025;-69
2023/09/29 04:08:55;;;;;;;9.35;6.88;;;16.90;80.10;;;;;;5072372;28;20052;-70
2023/09/29 04:11:21;;;;;;;14.25;7.10;;;16.90;80.20;;;;;;5074893;28;20031;-68
2023/09/29 04:13:47;;;;;;;11.65;7.15;;;16.90;80.70;;;;;;5074926;28;20473;-68
2023/09/29 04:16:14;;;;;;;11.18;7.03;;;16.80;80.80;;;;;;5075992;28;20058;-68
2023/09/29 04:18:39;;;;;;;11.07;7.20;;;16.80;80.70;;;;;;5076348;28;20024;-68
2023/09/29 04:21:12;;;;;;;23.27;6.90;;;16.80;81.30;;;;;;5075898;28;20507;-67
2023/09/29 04:23:37;;;;;;;10.80;7.55;;;16.80;81.20;;;;;;5076243;28;20046;-68
2023/09/29 04:26:03;;;;;;;8.52;7.00;;;16.80;81.50;;;;;;5075751;28;20430;-68
2023/09/29 04:28:28;;;;;;;11.30;8.02;;;16.80;81.70;;;;;;5075816;28;20035;-68
2023/09/29 04:30:54;;;;;;;19.50;7.97;;;16.70;82.00;;;;;;5076391;28;20025;-68
2023/09/29 04:33:20;;;;;;;13.30;8.60;;;16.70;82.30;;;;;;5075227;28;20115;-68
2023/09/29 04:35:45;;;;;;;8.70;7.18;;;16.70;82.60;;;;;;5075935;28;20457;-67
2023/09/29 04:38:11;;;;;;;15.13;7.55;;;16.70;82.70;;;;;;5075450;28;20020;-68
2023/09/29 04:40:38;;;;;;;16.23;8.35;;;16.70;83.00;;;;;;5074787;28;20029;-68
2023/09/29 04:43:04;;;;;;;13.38;9.25;;;16.60;84.10;;;;;;5074131;28;20028;-68
2023/09/29 04:45:30;;;;;;;15.95;8.93;;;16.70;84.70;;;;;;5075689;28;20086;-67
2023/09/29 04:47:58;;;;;;;9.57;7.90;;;16.60;84.20;;;;;;5075405;28;20029;-68
2023/09/29 04:50:23;;;;;;;13.30;7.55;;;16.60;84.30;;;;;;5075685;28;20130;-68
2023/09/29 04:52:49;;;;;;;13.82;8.75;;;16.60;84.60;;;;;;5075461;28;20039;-68
2023/09/29 04:55:15;;;;;;;14.10;8.57;;;16.50;84.90;;;;;;5075108;28;20036;-69
2023/09/29 04:57:41;;;;;;;20.35;9.63;;;16.50;85.40;;;;;;5075405;28;20052;-68
2023/09/29 05:00:07;;;;;;;15.07;8.63;;;16.50;86.80;;;;;;5074914;28;20032;-69
2023/09/29 05:02:33;;;;;;;12.98;8.52;;;16.40;88.10;;;;;;5075394;28;20068;-69
2023/09/29 05:04:58;;;;;;;13.88;8.35;;;16.40;88.00;;;;;;5075453;28;20098;-68
2023/09/29 05:07:24;;;;;;;16.90;9.20;;;16.50;88.20;;;;;;5075264;28;20047;-69
2023/09/29 05:09:50;;;;;;;13.73;9.00;;;16.40;88.40;;;;;;5075329;28;20031;-69
2023/09/29 05:12:15;;;;;;;13.30;8.43;;;16.50;88.80;;;;;;5074922;28;20137;-69
2023/09/29 05:14:41;;;;;;;22.42;9.10;;;16.40;89.60;;;;;;5074957;28;20028;-69
2023/09/29 05:17:07;;;;;;;13.05;8.68;;;16.40;90.00;;;;;;5074780;28;20369;-68
2023/09/29 05:19:32;;;;;;;12.05;8.48;;;16.40;89.80;;;;;;5074811;28;20461;-69
2023/09/29 05:21:58;;;;;;;17.40;9.05;;;16.40;89.50;;;;;;5075030;28;20028;-69
2023/09/29 05:24:24;;;;;;;17.13;9.90;;;16.50;89.30;;;;;;5091737;28;20028;-68
2023/09/29 05:26:49;;;;;;;15.30;8.05;;;16.40;88.30;;;;;;5095120;28;20030;-69
2023/09/29 05:29:15;;;;;;;13.27;9.07;;;16.50;88.40;;;;;;5094748;28;20028;-68
2023/09/29 05:31:41;;;;;;;13.48;7.63;;;16.50;87.70;;;;;;5095053;28;20111;-68
2023/09/29 05:34:07;;;;;;;11.82;7.25;;;16.50;86.50;;;;;;5094600;28;20020;-68
2023/09/29 05:36:32;;;;;;;15.27;7.05;;;16.60;85.20;;;;;;5095117;28;20035;-68
2023/09/29 05:38:58;;;;;;;9.25;6.07;;;16.50;85.20;;;;;;5095207;28;20044;-68
2023/09/29 05:41:23;;;;;;;16.45;7.15;;;16.50;85.40;;;;;;5094395;28;20036;-68
2023/09/29 05:43:49;;;;;;;10.48;6.45;;;16.60;85.60;;;;;;5094532;28;20032;-68
2023/09/29 05:46:14;;;;;;;17.20;8.15;;;16.60;84.80;;;;;;5094471;28;20024;-68
2023/09/29 05:48:40;;;;;;;11.88;6.38;;;16.60;84.90;;;;;;5094594;28;20073;-68
2023/09/29 05:51:06;;;;;;;11.13;6.72;;;16.70;84.90;;;;;;5094075;28;20074;-69
2023/09/29 05:53:31;;;;;;;18.42;6.40;;;16.70;84.80;;;;;;5094773;28;20035;-68
2023/09/29 05:56:06;;;;;;;14.52;6.20;;;16.80;84.70;;;;;;5094844;28;20031;-68
2023/09/29 05:58:31;;;;;;;12.23;7.18;;;16.80;84.30;;;;;;5094831;28;20518;-68
2023/09/29 06:00:57;;;;;;;14.68;6.80;;;16.90;84.50;;;;;;5094252;28;20065;-68
2023/09/29 06:03:22;;;;;;;16.13;6.55;;;16.90;84.10;;;;;;5093933;28;20280;-69
2023/09/29 06:05:48;;;;;;;15.60;6.53;;;16.90;84.20;;;;;;5094156;28;20028;-69
2023/09/29 06:08:14;;;;;;;9.05;7.00;;;16.90;84.60;;;;;;5074913;28;20029;-68
2023/09/29 06:10:39;;;;;;;8.75;6.28;;;16.90;84.70;;;;;;5075907;28;20467;-68
2023/09/29 06:13:05;;;;;;;15.35;6.63;;;17.00;84.80;;;;;;5073943;28;20060;-70
2023/09/29 06:15:31;;;;;;;13.00;6.97;;;17.00;85.30;;;;;;5073823;28;20036;-68
2023/09/29 06:17:56;;;;;;;14.32;6.90;;;17.10;85.40;;;;;;5073833;28;20024;-67
2023/09/29 06:20:22;;;;;;;15.68;7.10;;;17.10;85.40;;;;;;5073151;28;20046;-68
2023/09/29 06:22:48;;;;;;;15.40;6.72;;;17.20;85.00;;;;;;5073338;28;20033;-68
2023/09/29 06:25:14;;;;;;;13.27;7.15;;;17.30;85.40;;;;;;5073405;28;20104;-67
2023/09/29 06:27:39;;;;;;;10.25;6.72;;;17.30;85.20;;;;;;5073586;28;20029;-68
2023/09/29 06:30:06;;;;;;;13.63;7.85;;;17.30;85.00;;;;;;5073881;28;20024;-68
2023/09/29 06:32:31;;;;;;;11.07;6.40;;;17.40;85.10;;;;;;5073589;28;20041;-68
2023/09/29 06:34:57;;;;;;;11.48;6.55;;;17.40;84.30;;;;;;5073192;28;20108;-68
2023/09/29 06:37:23;;;;;;;11.43;5.90;;;17.50;83.60;;;;;;5072697;28;20073;-69
2023/09/29 06:39:48;;;;;;;17.52;6.47;;;17.50;83.70;;;;;;5073501;28;20369;-68
2023/09/29 06:42:14;;;;;;;8.75;6.80;;;17.60;83.60;;;;;;5072575;28;20099;-67
2023/09/29 06:44:40;;;;;;;9.48;6.22;;;17.60;83.80;;;;;;5073788;28;20032;-68
2023/09/29 06:47:06;;;;;;;15.82;6.55;;;17.70;83.40;;;;;;5073356;28;20035;-68
2023/09/29 06:49:31;;;;;;;11.85;7.25;;;17.80;83.10;;;;;;5073017;28;20085;-68
2023/09/29 06:51:57;;;;;;;11.20;6.35;;;17.80;82.10;;;;;;5073673;28;20047;-68
2023/09/29 06:54:22;;;;;;;12.32;6.30;;;17.90;81.90;;;;;;5072657;28;20138;-68
2023/09/29 06:56:48;;;;;;;14.90;6.13;;;17.90;80.10;;;;;;5073066;28;20118;-68
2023/09/29 06:59:13;;;;;;;13.40;6.10;;;18.00;79.10;;;;;;5072776;28;20029;-69
2023/09/29 07:01:39;;;;;;;11.77;6.00;;;18.10;78.90;;;;;;5073128;28;20029;-69
2023/09/29 07:04:05;;;;;;;10.73;5.35;;;18.20;78.40;;;;;;5073137;28;20029;-69
2023/09/29 07:06:30;;;;;;;10.90;5.78;;;18.30;77.70;;;;;;5072716;28;20422;-69
2023/09/29 07:08:56;;;;;;;12.88;5.75;;;18.50;77.20;;;;;;5072780;28;20060;-69
2023/09/29 07:11:22;;;;;;;12.52;5.60;;;18.60;76.60;;;;;;5072607;28;20035;-69
2023/09/29 07:13:47;;;;;;;8.20;5.65;;;18.90;76.70;;;;;;5072996;28;20099;-69
2023/09/29 07:16:13;;;;;;;8.52;5.90;;;19.20;75.60;;;;;;5072246;28;20431;-69
2023/09/29 07:18:41;;;;;;;11.63;5.10;;;19.60;73.40;;;;;;5072762;28;20025;-68
2023/09/29 07:21:06;;;;;;;12.55;5.00;;;19.90;71.20;;;;;;5071489;28;20119;-69
2023/09/29 07:23:34;;;;;;;7.93;4.82;;;20.30;71.10;;;;;;5072435;28;20511;-69
2023/09/29 07:25:59;;;;;;;11.90;5.30;;;20.60;69.30;;;;;;5073296;28;20021;-69
2023/09/29 07:28:25;;;;;;;9.85;4.60;;;21.00;67.90;;;;;;5072529;28;20103;-68
2023/09/29 07:30:51;;;;;;;11.25;5.53;;;21.40;67.50;;;;;;5072601;28;20037;-69
2023/09/29 07:33:16;;;;;;;10.65;4.75;;;21.70;65.60;;;;;;5072345;28;20025;-69
2023/09/29 07:35:45;;;;;;;10.13;4.55;;;22.20;64.80;;;;;;5072489;28;20029;-69
2023/09/29 07:38:12;;;;;;;11.95;4.47;;;22.60;62.60;;;;;;5072287;28;20346;-69
2023/09/29 07:40:38;;;;;;;11.18;4.88;;;23.10;60.40;;;;;;5072501;28;20154;-68
2023/09/29 07:43:05;;;;;;;8.65;4.28;;;23.80;58.80;;;;;;5072570;28;20028;-68
2023/09/29 07:45:32;;;;;;;9.80;4.00;;;24.80;58.00;;;;;;5072147;28;20457;-69
2023/09/29 07:47:57;;;;;;;10.35;4.10;;;26.00;53.60;;;;;;5072537;28;20028;-69
2023/09/29 07:50:23;;;;;;;6.25;4.03;;;27.20;51.90;;;;;;5072209;28;20101;-69
2023/09/29 07:52:49;;;;;;;8.60;4.00;;;28.20;48.50;;;;;;5072690;28;20052;-69
2023/09/29 07:55:14;;;;;;;7.72;4.20;;;29.10;45.80;;;;;;5071602;28;20423;-68
2023/09/29 07:57:40;;;;;;;12.93;4.10;;;29.70;44.70;;;;;;5072320;28;20103;-68
2023/09/29 08:00:09;;;;;;;9.48;4.30;;;30.40;43.60;;;;;;5070979;28;20479;-68
2023/09/29 08:02:34;;;;;;;14.32;4.28;;;30.70;42.10;;;;;;5071960;28;20131;-68
2023/09/29 08:05:00;;;;;;;9.02;3.88;;;31.00;42.40;;;;;;5082935;28;20523;-68
2023/09/29 08:07:27;;;;;;;9.68;4.43;;;31.10;41.40;;;;;;5092059;28;20058;-69
2023/09/29 08:09:53;;;;;;;5.75;3.50;;;31.20;41.00;;;;;;5092435;28;20040;-69
2023/09/29 08:12:19;;;;;;;9.70;3.72;;;30.80;40.70;;;;;;5090642;28;20028;-68
2023/09/29 08:14:45;;;;;;;9.50;3.65;;;30.20;41.70;;;;;;5080487;28;20066;-68
2023/09/29 08:17:11;;;;;;;9.57;4.30;;;29.80;42.00;;;;;;5070528;28;20039;-69
2023/09/29 08:19:37;;;;;;;9.13;3.95;;;29.50;42.50;;;;;;5071784;28;20021;-68
2023/09/29 08:22:02;;;;;;;9.70;4.05;;;29.10;43.70;;;;;;5072107;28;20361;-68
2023/09/29 08:24:31;;;;;;;9.50;4.22;;;28.80;44.10;;;;;;5071727;28;20025;-68
2023/09/29 08:26:57;;;;;;;10.23;4.50;;;28.50;44.40;;;;;;5072048;28;20082;-68
2023/09/29 08:29:22;;;;;;;6.20;3.50;;;28.00;45.20;;;;;;5071687;28;20025;-70
2023/09/29 08:31:48;;;;;;;5.47;3.50;;;28.00;45.50;;;;;;5071832;28;20033;-68
2023/09/29 08:34:14;;;;;;;10.35;3.83;;;27.90;45.10;;;;;;5072034;28;20020;-68
2023/09/29 08:36:39;;;;;;;8.80;4.05;;;27.80;45.40;;;;;;5071391;28;20095;-68
2023/09/29 08:39:06;;;;;;;7.85;4.15;;;27.70;45.50;;;;;;5071912;28;20423;-67
2023/09/29 08:41:34;;;;;;;9.60;3.90;;;27.70;45.40;;;;;;5071547;28;20058;-68
2023/09/29 08:44:02;;;;;;;9.43;4.20;;;27.60;46.00;;;;;;5071919;28;20492;-69
2023/09/29 08:46:32;;;;;;;9.35;3.75;;;27.50;46.50;;;;;;5071848;28;20086;-70
2023/09/29 08:49:00;;;;;;;8.90;4.20;;;27.40;46.80;;;;;;5071938;28;20017;-68
2023/09/29 08:51:27;;;;;;;15.15;4.38;;;27.30;47.50;;;;;;5071344;28;20040;-70
2023/09/29 08:53:56;;;;;;;9.15;3.90;;;27.40;48.00;;;;;;5071406;28;20522;-69
2023/09/29 08:56:21;;;;;;;8.60;4.13;;;27.50;48.10;;;;;;5071274;28;20029;-69
2023/09/29 08:58:47;;;;;;;15.38;4.38;;;27.50;47.00;;;;;;5072848;28;20059;-69
2023/09/29 09:01:13;;;;;;;8.15;4.22;;;27.60;46.50;;;;;;5075233;28;20457;-69
2023/09/29 09:03:39;;;;;;;8.43;3.58;;;27.50;46.50;;;;;;5074915;28;20338;-69
2023/09/29 09:06:21;;;;;;;9.48;4.00;;;27.40;46.60;;;;;;5075322;28;20035;-69
2023/09/29 09:08:48;;;;;;;9.75;4.28;;;27.40;46.00;;;;;;5075085;28;20426;-68
2023/09/29 09:11:13;;;;;;;6.68;4.00;;;27.40;46.20;;;;;;5075159;28;20032;-69
2023/09/29 09:13:40;;;;;;;6.18;4.18;;;27.40;46.40;;;;;;5074757;28;20380;-69
2023/09/29 09:16:07;;;;;;;8.52;4.07;;;27.20;46.50;;;;;;5075129;28;20477;-69
2023/09/29 09:18:33;;;;;;;9.25;3.92;;;27.20;47.20;;;;;;5074455;28;20064;-69
2023/09/29 09:20:58;;;;;;;9.55;3.60;;;27.30;47.10;;;;;;5074685;28;20063;-69
2023/09/29 09:23:24;;;;;;;4.82;3.78;;;27.30;47.30;;;;;;5074233;28;20075;-69
2023/09/29 09:25:50;;;;;;;7.18;4.22;;;27.30;47.40;;;;;;5074464;28;20033;-70
2023/09/29 09:28:19;;;;;;;8.48;4.82;;;27.30;47.20;;;;;;5074135;28;20021;-69
2023/09/29 09:30:47;;;;;;;15.13;4.75;;;27.30;47.20;;;;;;5074923;28;20071;-69
2023/09/29 09:33:23;;;;;;;11.30;4.47;;;27.40;47.20;;;;;;5074971;28;20028;-69
2023/09/29 09:35:51;;;;;;;6.32;3.90;;;27.40;47.10;;;;;;5076961;28;20036;-69
2023/09/29 09:38:17;;;;;;;13.45;4.97;;;27.40;47.50;;;;;;5074674;28;20027;-68
2023/09/29 09:40:49;;;;;;;10.20;4.28;;;27.50;47.40;;;;;;5074180;28;20033;-68
2023/09/29 09:43:17;;;;;;;10.90;4.75;;;27.60;47.40;;;;;;5074528;28;20024;-68
2023/09/29 09:45:48;;;;;;;11.27;4.63;;;27.50;46.90;;;;;;5074214;28;20107;-68
2023/09/29 09:48:20;;;;;;;11.23;3.92;;;27.50;47.30;;;;;;5074148;28;20376;-68
2023/09/29 09:50:49;;;;;;;9.05;4.00;;;27.20;47.30;;;;;;5074312;28;20035;-68
2023/09/29 09:53:18;;;;;;;11.23;4.22;;;27.30;47.70;;;;;;5074251;28;20035;-68
2023/09/29 09:55:55;;;;;;;13.27;4.13;;;27.50;47.90;;;;;;5075128;28;20012;-68
2023/09/29 09:58:23;;;;;;;7.93;4.10;;;27.70;47.30;;;;;;5074244;28;20122;-69
2023/09/29 10:00:55;;;;;;;8.85;4.05;;;27.90;47.90;;;;;;5073958;28;20123;-68
2023/09/29 10:03:21;;;;;;;8.07;3.70;;;28.10;47.70;;;;;;5073839;28;20122;-69
2023/09/29 10:05:53;;;;;;;5.32;3.60;;;28.20;47.10;;;;;;5074063;28;20027;-68
2023/09/29 10:08:30;;;;;;;7.32;4.05;;;28.40;47.30;;;;;;5093435;28;20108;-69
2023/09/29 10:11:10;;;;;;;9.45;4.18;;;28.60;46.20;;;;;;5093181;28;20110;-68
2023/09/29 10:13:36;;;;;;;;;;;28.80;45.80;;;;;;5094118;28;20031;-69
2023/09/29 10:16:05;;;;;;;8.32;3.70;;;28.90;46.60;;;;;;5094020;28;19904;-67
2023/09/29 10:18:33;;;;;;;8.82;3.92;;;29.10;46.60;;;;;;5093490;28;20036;-69
2023/09/29 10:21:09;;;;;;;11.73;4.65;;;28.90;44.80;;;;;;5093699;28;20047;-68
2023/09/29 10:23:50;;;;;;;9.75;4.00;;;28.90;45.10;;;;;;5093535;28;20072;-69
2023/09/29 10:26:17;;;;;;;6.00;3.78;;;28.90;44.90;;;;;;5093792;28;20445;-68
2023/09/29 10:28:45;;;;;;;13.07;4.50;;;28.90;45.40;;;;;;5093414;28;20028;-68
2023/09/29 10:31:18;;;;;;;10.38;4.20;;;28.70;45.40;;;;;;5093959;28;20032;-68
2023/09/29 10:33:53;;;;;;;15.00;4.97;;;28.80;46.30;;;;;;5093328;28;20103;-69
2023/09/29 10:36:23;;;;;;;8.73;4.40;;;28.90;46.00;;;;;;5093379;28;20503;-68
2023/09/29 10:38:54;;;;;;;9.80;4.50;;;29.00;45.30;;;;;;5093593;28;20023;-69
2023/09/29 10:41:21;;;;;;;8.57;3.78;;;29.00;45.10;;;;;;5093517;28;20038;-68
2023/09/29 10:43:50;;;;;;;10.77;4.63;;;29.10;46.20;;;;;;5093048;28;20054;-68
2023/09/29 10:46:24;;;;;;;13.18;4.10;;;29.30;46.30;;;;;;5093463;28;20460;-69
2023/09/29 10:48:52;;;;;;;12.35;4.30;;;29.50;45.00;;;;;;5093905;28;20024;-69
2023/09/29 10:51:30;;;;;;;7.82;4.00;;;29.60;45.00;;;;;;5093455;28;20103;-68
2023/09/29 10:54:02;;;;;;;9.02;4.63;;;29.70;43.90;;;;;;5093528;28;20052;-69
2023/09/29 10:56:28;;;;;;;10.07;4.68;;;29.70;44.10;;;;;;5091186;28;20081;-69
2023/09/29 10:58:55;;;;;;;7.07;4.25;;;29.50;43.90;;;;;;5093169;28;20028;-68
2023/09/29 11:01:32;;;;;;;14.07;4.25;;;29.40;43.40;;;;;;5093253;28;20032;-68
2023/09/29 11:03:59;;;;;;;8.63;4.30;;;29.40;43.90;;;;;;5093128;28;20422;-68
2023/09/29 11:06:25;;;;;;;6.38;4.28;;;29.60;43.60;;;;;;5093021;28;20077;-69
2023/09/29 11:08:55;;;;;;;11.10;3.72;;;29.70;43.20;;;;;;5092928;28;20027;-69
2023/09/29 11:11:21;;;;;;;;;;;29.90;43.90;;;;;;5093580;28;20059;-68
2023/09/29 11:13:54;;;;;;;5.30;3.25;;;30.10;44.30;;;;;;5092606;28;20368;-67
2023/09/29 11:16:24;;;;;;;3.08;2.60;;;30.20;41.20;;;;;;5092948;28;20483;-68
2023/09/29 11:18:50;;;;;;;6.55;3.03;;;30.20;39.10;;;;;;5092647;28;20024;-68
2023/09/29 11:21:16;;;;;;;8.25;3.50;;;30.30;38.90;;;;;;5091961;28;20036;-68
2023/09/29 11:23:48;;;;;;;6.50;3.53;;;30.30;37.90;;;;;;5092481;28;20028;-68
2023/09/29 11:26:15;;;;;;;7.20;3.50;;;30.20;38.80;;;;;;5092919;28;20020;-69
2023/09/29 11:28:48;;;;;;;7.93;3.67;;;30.20;38.60;;;;;;5088986;28;20559;-68
2023/09/29 11:31:15;;;;;;;8.80;3.63;;;30.30;38.80;;;;;;5093097;28;20061;-69
2023/09/29 11:33:42;;;;;;;15.10;3.60;;;30.40;39.00;;;;;;5092314;28;20089;-68
2023/09/29 11:36:29;;;;;;;9.32;3.47;;;30.50;38.60;;;;;;5092733;28;20020;-68
2023/09/29 11:38:55;;;;;;;7.60;3.63;;;30.30;38.40;;;;;;5092555;28;20111;-69
2023/09/29 11:41:22;;;;;;;8.55;3.33;;;30.30;39.30;;;;;;5092584;28;20121;-69
2023/09/29 11:43:48;;;;;;;5.75;3.10;;;30.40;38.70;;;;;;5092040;28;20102;-69
2023/09/29 11:46:14;;;;;;;6.03;3.55;;;30.40;38.80;;;;;;5092696;28;20039;-69
2023/09/29 11:48:41;;;;;;;13.88;3.67;;;30.50;38.40;;;;;;5090968;28;20221;-69
2023/09/29 11:51:08;;;;;;;7.82;3.47;;;30.50;38.70;;;;;;5092567;28;20032;-69
2023/09/29 11:53:34;;;;;;;9.82;3.30;;;30.70;39.00;;;;;;5077008;28;20016;-69
2023/09/29 11:56:00;;;;;;;7.82;3.20;;;30.70;38.40;;;;;;5072110;28;20024;-68
2023/09/29 11:58:26;;;;;;;5.25;3.38;;;30.60;38.30;;;;;;5074431;28;20086;-68
2023/09/29 12:00:52;;;;;;;10.60;3.30;;;30.70;38.30;;;;;;5092064;28;20063;-68
2023/09/29 12:03:21;;;;;;;6.38;3.22;;;30.80;37.60;;;;;;5093000;28;20032;-68
2023/09/29 12:05:49;;;;;;;6.80;3.60;;;30.80;37.20;;;;;;5092127;28;20032;-68
2023/09/29 12:08:16;;;;;;;10.60;3.47;;;30.80;37.20;;;;;;5092504;28;20073;-69
2023/09/29 12:10:42;;;;;;;6.20;3.17;;;30.70;37.10;;;;;;5092050;28;20079;-68
2023/09/29 12:13:10;;;;;;;18.13;4.38;;;30.30;37.20;;;;;;5092636;28;20480;-68
2023/09/29 12:15:36;;;;;;;14.57;3.75;;;30.20;37.30;;;;;;5091998;28;20110;-68
2023/09/29 12:18:02;;;;;;;9.68;3.58;;;30.10;37.80;;;;;;5092224;28;20039;-68
2023/09/29 12:20:28;;;;;;;11.15;3.42;;;30.10;38.00;;;;;;5092423;28;20326;-67
2023/09/29 12:22:55;;;;;;;7.10;3.58;;;30.10;38.30;;;;;;5091688;28;20495;-67
2023/09/29 12:25:21;;;;;;;7.50;3.45;;;30.00;38.50;;;;;;5092495;28;20024;-67
2023/09/29 12:27:50;;;;;;;9.20;3.17;;;30.10;38.00;;;;;;5092109;28;20337;-67
2023/09/29 12:30:17;;;;;;;9.18;3.30;;;30.10;38.00;;;;;;5092336;28;20024;-69
2023/09/29 12:32:44;;;;;;;9.40;3.60;;;29.90;37.40;;;;;;5091767;28;20384;-67
2023/09/29 12:35:12;;;;;;;8.13;3.40;;;29.80;37.90;;;;;;5095460;28;20020;-68
2023/09/29 12:37:39;;;;;;;8.43;3.33;;;29.80;38.10;;;;;;5095851;28;20028;-68
2023/09/29 12:40:12;;;;;;;5.78;3.20;;;29.80;37.70;;;;;;5096039;28;20036;-68